Time;durP1;ratioP1;P1;durP2;ratioP2;P2;SDS_P1;SDS_P2;PMS_P1;PMS_P2;Temp;Humidity;BMP_temperature;BMP_pressure;BME280_temperature;BME280_humidity;BME280_pressure;Samples;Min_cycle;Max_cycle;Signal;HPM_P1;HPM_P2
2021/01/05 00:02:05;;;;;;;13.80;10.25;;;1.20;30.30;;;;;;4995048;28;20259;-71
2021/01/05 00:04:34;;;;;;;12.97;10.90;;;1.10;30.90;;;;;;4994861;28;20185;-70
2021/01/05 00:07:03;;;;;;;12.90;10.60;;;1.00;31.60;;;;;;4992520;28;20257;-71
2021/01/05 00:09:29;;;;;;;19.73;12.95;;;1.10;31.60;;;;;;4991693;28;20587;-70
2021/01/05 00:11:59;;;;;;;19.90;12.07;;;1.00;32.10;;;;;;4990063;28;20237;-71
2021/01/05 00:14:25;;;;;;;13.52;12.13;;;0.90;32.40;;;;;;4991150;28;20205;-70
2021/01/05 00:16:51;;;;;;;19.17;13.70;;;0.80;32.90;;;;;;4991554;28;20182;-71
2021/01/05 00:19:17;;;;;;;14.53;11.70;;;0.90;33.30;;;;;;4991171;28;20418;-69
2021/01/05 00:21:43;;;;;;;13.27;11.65;;;0.90;33.20;;;;;;4991427;28;20208;-71
2021/01/05 00:24:08;;;;;;;15.27;12.93;;;0.90;33.20;;;;;;4991331;28;20211;-70
2021/01/05 00:26:35;;;;;;;16.07;12.27;;;0.80;33.40;;;;;;4991426;28;20757;-70
2021/01/05 00:29:01;;;;;;;13.88;12.43;;;0.80;33.70;;;;;;4991428;28;20207;-70
2021/01/05 00:31:27;;;;;;;16.97;13.47;;;0.80;33.80;;;;;;4991457;28;20206;-71
2021/01/05 00:33:52;;;;;;;16.70;14.27;;;0.80;34.20;;;;;;4991068;28;20419;-69
2021/01/05 00:36:18;;;;;;;20.80;14.93;;;0.80;34.60;;;;;;4990912;28;20200;-70
2021/01/05 00:38:43;;;;;;;15.50;13.43;;;0.80;34.60;;;;;;4990882;28;20233;-70
2021/01/05 00:41:09;;;;;;;15.57;13.90;;;0.80;34.70;;;;;;4989983;28;20207;-71
2021/01/05 00:43:34;;;;;;;18.77;13.40;;;0.80;34.60;;;;;;4990198;28;20736;-72
2021/01/05 00:46:00;;;;;;;20.60;14.60;;;0.80;34.60;;;;;;4991248;28;20476;-72
2021/01/05 00:48:25;;;;;;;18.20;12.37;;;0.80;34.60;;;;;;4990947;28;20249;-70
2021/01/05 00:50:51;;;;;;;14.83;12.27;;;0.80;34.60;;;;;;4991138;28;20233;-70
2021/01/05 00:53:16;;;;;;;16.80;12.10;;;0.80;34.60;;;;;;4989922;28;20648;-72
2021/01/05 00:55:42;;;;;;;19.03;14.50;;;0.90;34.70;;;;;;4989549;28;20575;-71
2021/01/05 00:58:07;;;;;;;14.13;12.60;;;0.80;34.70;;;;;;4990974;28;20187;-72
2021/01/05 01:00:33;;;;;;;24.77;14.00;;;0.80;34.70;;;;;;4990618;28;20239;-71
2021/01/05 01:02:59;;;;;;;14.90;13.13;;;0.90;34.70;;;;;;4990931;28;20643;-72
2021/01/05 01:05:24;;;;;;;15.70;13.10;;;0.90;34.80;;;;;;4990820;28;20442;-72
2021/01/05 01:07:50;;;;;;;15.93;12.33;;;0.90;34.70;;;;;;4989735;28;20284;-71
2021/01/05 01:10:16;;;;;;;13.40;10.63;;;0.90;34.70;;;;;;4990668;28;20266;-71
2021/01/05 01:12:42;;;;;;;12.00;10.20;;;1.00;33.60;;;;;;4990915;28;20175;-70
2021/01/05 01:15:11;;;;;;;11.10;9.57;;;1.00;33.20;;;;;;4989351;28;20506;-71
2021/01/05 01:17:37;;;;;;;12.45;11.15;;;1.10;33.00;;;;;;4990254;28;20182;-70
2021/01/05 01:20:06;;;;;;;17.20;12.60;;;1.10;32.90;;;;;;4990362;28;20645;-72
2021/01/05 01:22:31;;;;;;;12.13;10.55;;;1.10;33.00;;;;;;4990427;28;20184;-71
2021/01/05 01:24:57;;;;;;;14.03;11.00;;;1.10;32.70;;;;;;4990377;28;20758;-72
2021/01/05 01:27:23;;;;;;;9.23;8.33;;;1.10;32.80;;;;;;4990333;28;20476;-71
2021/01/05 01:29:48;;;;;;;13.70;8.80;;;1.10;32.50;;;;;;4988988;28;20191;-72
2021/01/05 01:32:15;;;;;;;9.90;8.97;;;1.10;31.60;;;;;;4990331;28;20186;-71
2021/01/05 01:34:41;;;;;;;13.23;11.15;;;1.30;31.90;;;;;;4990167;28;20195;-71
2021/01/05 01:37:10;;;;;;;13.60;11.90;;;1.30;32.20;;;;;;4990543;28;20671;-72
2021/01/05 01:39:38;;;;;;;17.27;13.57;;;1.20;32.70;;;;;;4990011;28;20263;-71
2021/01/05 01:42:07;;;;;;;14.35;12.15;;;1.10;33.40;;;;;;4990432;28;20188;-71
2021/01/05 01:44:36;;;;;;;13.70;12.27;;;1.00;33.80;;;;;;4990059;28;20234;-72
2021/01/05 01:47:10;;;;;;;13.00;11.90;;;1.00;34.30;;;;;;4989894;28;20490;-71
2021/01/05 01:49:37;;;;;;;19.58;13.32;;;1.00;34.40;;;;;;4988253;28;20187;-71
2021/01/05 01:52:05;;;;;;;16.50;13.10;;;1.00;34.50;;;;;;4989915;28;20184;-71
2021/01/05 01:54:51;;;;;;;16.45;14.40;;;1.00;34.80;;;;;;4989862;28;20168;-70
2021/01/05 01:57:54;;;;;;;11.68;10.50;;;1.00;34.80;;;;;;4990007;28;20223;-71
2021/01/05 02:00:29;;;;;;;13.70;12.30;;;1.10;33.60;;;;;;4989599;28;20283;-72
2021/01/05 02:03:28;;;;;;;16.63;11.80;;;1.10;33.80;;;;;;4989840;28;20675;-72
2021/01/05 02:06:07;;;;;;;17.85;12.85;;;1.10;34.30;;;;;;4989460;28;20315;-71
2021/01/05 02:08:44;;;;;;;18.48;13.35;;;1.10;34.70;;;;;;4989653;28;20214;-70
2021/01/05 02:11:44;;;;;;;13.38;12.07;;;1.00;34.80;;;;;;4989785;28;20457;-72
2021/01/05 02:14:33;;;;;;;12.25;10.93;;;1.10;34.90;;;;;;4990866;28;20720;-72
2021/01/05 02:17:33;;;;;;;15.82;11.75;;;1.10;34.90;;;;;;4988548;28;20268;-70
2021/01/05 02:20:10;;;;;;;15.52;11.32;;;1.00;34.80;;;;;;4989644;28;20685;-70
2021/01/05 02:23:00;;;;;;;13.05;11.38;;;1.10;34.90;;;;;;4989472;28;20207;-71
2021/01/05 02:25:44;;;;;;;13.93;10.32;;;1.10;34.80;;;;;;4989456;28;20207;-71
2021/01/05 02:28:12;;;;;;;12.23;10.88;;;1.10;34.90;;;;;;4989677;28;20176;-72
2021/01/05 02:30:43;;;;;;;15.93;12.35;;;1.10;34.90;;;;;;4988391;28;20218;-71
2021/01/05 02:33:23;;;;;;;12.48;11.23;;;1.10;34.90;;;;;;4989601;28;20236;-72
2021/01/05 02:36:26;;;;;;;13.20;11.80;;;1.00;34.80;;;;;;4988277;28;20211;-70
2021/01/05 02:39:07;;;;;;;13.98;11.75;;;1.00;34.80;;;;;;4987982;28;20184;-72
2021/01/05 02:42:01;;;;;;;18.00;12.13;;;1.10;34.90;;;;;;4989931;28;20646;-71
2021/01/05 02:44:55;;;;;;;15.50;11.65;;;1.20;35.00;;;;;;4989544;28;20178;-71
2021/01/05 02:47:38;;;;;;;12.02;10.82;;;1.20;35.00;;;;;;4989261;28;20214;-72
2021/01/05 02:50:12;;;;;;;12.38;11.18;;;1.20;35.00;;;;;;4989010;28;20180;-71
2021/01/05 02:53:10;;;;;;;12.48;9.32;;;1.10;34.90;;;;;;4989110;28;20533;-70
2021/01/05 02:56:10;;;;;;;10.60;9.45;;;1.00;34.80;;;;;;4989142;28;20222;-71
2021/01/05 02:59:05;;;;;;;15.80;11.07;;;1.00;34.80;;;;;;4987698;28;20179;-71
2021/01/05 03:01:45;;;;;;;12.40;10.32;;;1.00;34.80;;;;;;4989099;28;20310;-71
2021/01/05 03:04:11;;;;;;;14.65;11.40;;;1.00;34.80;;;;;;4989422;28;20186;-70
2021/01/05 03:06:58;;;;;;;13.50;11.03;;;1.00;34.80;;;;;;4988829;28;20204;-71
2021/01/05 03:09:30;;;;;;;11.20;10.10;;;1.10;34.90;;;;;;4988637;28;20218;-71
2021/01/05 03:12:20;;;;;;;15.88;11.40;;;1.10;34.90;;;;;;4988919;28;20226;-70
2021/01/05 03:15:27;;;;;;;13.88;10.25;;;1.10;34.90;;;;;;4988554;28;20612;-71
2021/01/05 03:17:58;;;;;;;15.18;10.85;;;1.00;34.80;;;;;;4996909;28;20188;-71
2021/01/05 03:20:31;;;;;;;12.93;11.73;;;1.00;34.80;;;;;;4988412;28;20311;-70
2021/01/05 03:23:01;;;;;;;13.57;12.10;;;1.00;34.80;;;;;;4988713;28;20649;-70
2021/01/05 03:25:31;;;;;;;11.73;9.85;;;1.00;35.10;;;;;;4987082;28;20203;-71
2021/01/05 03:28:00;;;;;;;12.70;11.32;;;1.00;35.00;;;;;;4988739;28;20177;-71
2021/01/05 03:30:37;;;;;;;13.25;10.75;;;1.00;35.30;;;;;;4988376;28;20254;-69
2021/01/05 03:33:03;;;;;;;12.48;11.18;;;1.00;35.50;;;;;;4988743;28;20171;-72
2021/01/05 03:35:28;;;;;;;10.60;8.80;;;1.00;35.30;;;;;;4988227;28;20807;-71
2021/01/05 03:37:55;;;;;;;19.53;12.40;;;1.00;35.80;;;;;;4988413;28;20441;-70
2021/01/05 03:40:21;;;;;;;14.68;11.75;;;1.00;35.60;;;;;;4988261;28;20219;-71
2021/01/05 03:42:47;;;;;;;12.87;10.57;;;0.90;35.90;;;;;;4991711;28;20219;-70
2021/01/05 03:45:28;;;;;;;13.73;10.13;;;0.90;36.00;;;;;;4991395;28;20459;-70
2021/01/05 03:47:54;;;;;;;11.45;10.27;;;0.90;36.30;;;;;;4991529;28;20736;-71
2021/01/05 03:50:19;;;;;;;13.20;11.80;;;0.90;36.40;;;;;;4991245;28;20281;-72
2021/01/05 03:52:45;;;;;;;16.80;12.53;;;0.90;36.60;;;;;;4991481;28;20947;-72
2021/01/05 03:55:13;;;;;;;14.30;11.37;;;0.90;36.40;;;;;;4991376;28;20215;-69
2021/01/05 03:57:39;;;;;;;14.25;12.20;;;0.90;36.60;;;;;;4991301;28;20252;-70
2021/01/05 04:00:10;;;;;;;12.83;10.53;;;0.90;36.70;;;;;;4991337;28;20173;-72
2021/01/05 04:02:36;;;;;;;16.92;10.85;;;0.90;36.60;;;;;;4990061;28;20317;-71
2021/01/05 04:05:04;;;;;;;15.67;13.50;;;0.90;36.60;;;;;;4991631;28;20257;-72
2021/01/05 04:07:29;;;;;;;11.98;10.77;;;0.90;37.00;;;;;;4991267;28;20210;-72
2021/01/05 04:09:55;;;;;;;12.40;10.10;;;0.90;37.10;;;;;;4990920;28;20175;-70
2021/01/05 04:12:20;;;;;;;16.90;13.90;;;0.90;37.00;;;;;;4991471;28;20256;-71
2021/01/05 04:14:46;;;;;;;17.10;12.87;;;0.90;36.70;;;;;;4991068;28;20271;-71
2021/01/05 04:17:12;;;;;;;15.63;12.40;;;0.80;37.20;;;;;;4991171;28;20651;-72
2021/01/05 04:19:38;;;;;;;13.18;11.43;;;0.80;37.50;;;;;;4991028;28;20191;-71
2021/01/05 04:22:04;;;;;;;16.42;13.52;;;0.90;37.40;;;;;;4991318;28;20183;-70
2021/01/05 04:24:29;;;;;;;13.00;11.00;;;0.80;37.50;;;;;;4990926;28;20180;-70
2021/01/05 04:26:55;;;;;;;17.63;12.63;;;0.80;37.80;;;;;;4990836;28;20207;-69
2021/01/05 04:29:20;;;;;;;17.57;12.60;;;0.80;37.90;;;;;;4990566;28;20253;-69
2021/01/05 04:31:46;;;;;;;12.07;10.63;;;0.80;38.30;;;;;;4990821;28;20188;-71
2021/01/05 04:34:13;;;;;;;20.03;14.27;;;0.80;38.40;;;;;;4990968;28;20187;-72
2021/01/05 04:36:39;;;;;;;24.63;13.45;;;0.90;38.10;;;;;;4989490;28;20492;-69
2021/01/05 04:39:07;;;;;;;12.70;11.33;;;0.90;37.90;;;;;;4990469;28;20231;-70
2021/01/05 04:41:52;;;;;;;18.85;13.02;;;0.90;38.00;;;;;;4990729;28;20782;-70
2021/01/05 04:44:18;;;;;;;12.18;10.98;;;0.90;38.00;;;;;;4990575;28;20190;-69
2021/01/05 04:46:51;;;;;;;12.80;11.57;;;0.90;38.00;;;;;;4990532;28;20533;-69
2021/01/05 04:49:22;;;;;;;11.52;10.43;;;0.90;37.80;;;;;;4990310;28;20416;-69
2021/01/05 04:51:59;;;;;;;11.95;10.63;;;0.90;38.00;;;;;;4990206;28;20180;-71
2021/01/05 04:54:38;;;;;;;13.10;11.60;;;0.90;37.90;;;;;;4990349;28;20525;-69
2021/01/05 04:57:21;;;;;;;15.30;13.30;;;0.90;38.20;;;;;;4991324;28;20590;-71
2021/01/05 05:00:05;;;;;;;19.85;12.85;;;0.90;38.20;;;;;;4990090;28;20176;-69
2021/01/05 05:02:31;;;;;;;16.20;11.75;;;0.80;38.30;;;;;;4990611;28;20184;-69
2021/01/05 05:05:17;;;;;;;20.67;12.30;;;0.80;38.70;;;;;;4989415;28;20207;-69
2021/01/05 05:07:50;;;;;;;20.75;13.98;;;0.80;39.10;;;;;;4989206;28;20247;-69
2021/01/05 05:10:29;;;;;;;15.50;12.65;;;0.70;39.40;;;;;;4989960;28;20651;-71
2021/01/05 05:13:05;;;;;;;14.98;13.30;;;0.70;39.40;;;;;;4988932;28;20192;-69
2021/01/05 05:15:42;;;;;;;15.63;14.00;;;0.70;39.60;;;;;;5033475;22;20326;-74
2021/01/05 05:18:21;;;;;;;17.83;13.30;;;0.70;39.60;;;;;;5095187;28;20172;-74
2021/01/05 05:21:05;;;;;;;20.40;13.93;;;0.70;39.70;;;;;;5074882;28;20180;-73
2021/01/05 05:23:46;;;;;;;19.25;12.55;;;0.80;39.70;;;;;;5093191;28;20183;-73
2021/01/05 05:26:29;;;;;;;16.20;14.50;;;0.80;39.70;;;;;;5092595;28;20209;-73
2021/01/05 05:29:03;;;;;;;16.77;14.45;;;0.90;39.80;;;;;;5092313;28;20552;-74
2021/01/05 05:31:32;;;;;;;18.48;14.73;;;1.00;39.20;;;;;;5092492;28;20168;-73
2021/01/05 05:34:16;;;;;;;17.98;13.93;;;1.10;38.90;;;;;;5074278;28;20235;-73
2021/01/05 05:37:17;;;;;;;14.38;12.98;;;1.10;38.50;;;;;;5099288;28;20189;-75
2021/01/05 05:40:07;;;;;;;19.08;15.23;;;1.20;38.20;;;;;;5101880;28;20655;-73
2021/01/05 05:42:57;;;;;;;15.10;13.07;;;1.20;37.50;;;;;;5083585;28;20180;-75
2021/01/05 05:45:28;;;;;;;15.02;13.48;;;1.20;37.50;;;;;;5083121;28;20200;-76
2021/01/05 05:48:27;;;;;;;13.77;12.30;;;1.20;37.70;;;;;;5100434;28;20172;-74
2021/01/05 05:51:28;;;;;;;18.48;13.93;;;1.10;37.80;;;;;;5102353;28;20173;-74
2021/01/05 05:54:03;;;;;;;15.32;13.82;;;1.10;37.90;;;;;;5082622;28;20184;-74
2021/01/05 05:56:51;;;;;;;20.30;13.48;;;1.10;38.40;;;;;;5093284;28;20624;-74
2021/01/05 05:59:18;;;;;;;15.63;14.02;;;1.10;38.20;;;;;;5093436;28;20183;-74
2021/01/05 06:01:44;;;;;;;19.05;15.30;;;1.00;38.30;;;;;;5093103;28;20226;-74
2021/01/05 06:04:12;;;;;;;22.07;17.17;;;1.00;38.40;;;;;;5075188;28;20208;-74
2021/01/05 06:06:40;;;;;;;22.55;16.23;;;0.90;38.50;;;;;;5074707;28;20217;-74
2021/01/05 06:09:06;;;;;;;25.33;15.40;;;0.90;38.90;;;;;;5092276;28;20164;-74
2021/01/05 06:11:33;;;;;;;18.60;15.17;;;0.90;39.10;;;;;;5091660;28;20183;-75
2021/01/05 06:14:03;;;;;;;22.88;15.63;;;1.00;39.00;;;;;;5091684;28;20174;-74
2021/01/05 06:16:34;;;;;;;18.33;16.45;;;1.00;38.90;;;;;;5091551;28;20261;-74
2021/01/05 06:19:00;;;;;;;17.30;14.73;;;1.00;39.10;;;;;;5091244;28;20219;-74
2021/01/05 06:21:25;;;;;;;18.53;15.33;;;0.90;39.20;;;;;;5091827;28;20177;-74
2021/01/05 06:23:51;;;;;;;17.70;14.00;;;1.00;39.30;;;;;;5073790;28;20519;-74
2021/01/05 06:26:18;;;;;;;21.30;15.87;;;1.00;39.50;;;;;;5091759;28;20207;-74
2021/01/05 06:28:44;;;;;;;25.17;16.92;;;1.00;39.20;;;;;;5093433;28;20176;-74
2021/01/05 06:31:10;;;;;;;18.88;15.50;;;1.00;39.30;;;;;;5074697;28;20179;-74
2021/01/05 06:33:35;;;;;;;24.27;16.63;;;1.00;39.40;;;;;;5074558;28;20169;-74
2021/01/05 06:36:01;;;;;;;22.50;16.90;;;;;;;;;;5092313;28;20470;-74
2021/01/05 06:38:27;;;;;;;24.13;15.53;;;1.10;38.80;;;;;;5074336;28;20181;-74
2021/01/05 06:40:52;;;;;;;18.03;15.00;;;1.20;39.00;;;;;;5092053;28;20420;-74
2021/01/05 06:43:18;;;;;;;19.37;15.20;;;1.20;38.80;;;;;;5091804;28;20185;-74
2021/01/05 06:45:44;;;;;;;22.53;15.13;;;1.20;38.70;;;;;;5073740;28;20251;-74
2021/01/05 06:48:09;;;;;;;20.90;16.13;;;1.30;38.60;;;;;;5091987;28;20228;-74
2021/01/05 06:50:35;;;;;;;20.97;15.60;;;1.20;38.30;;;;;;5091885;28;20180;-74
2021/01/05 06:53:00;;;;;;;16.63;14.90;;;1.20;38.40;;;;;;5091313;28;20695;-74
2021/01/05 06:55:26;;;;;;;25.80;16.60;;;1.20;38.90;;;;;;5074272;28;20212;-74
2021/01/05 06:57:52;;;;;;;21.10;18.33;;;1.20;38.60;;;;;;5091947;28;20189;-74
2021/01/05 07:00:23;;;;;;;18.33;16.40;;;1.20;38.70;;;;;;5091095;28;20224;-74
2021/01/05 07:02:49;;;;;;;18.17;16.25;;;1.20;38.90;;;;;;5073343;28;20180;-74
2021/01/05 07:05:15;;;;;;;23.73;18.23;;;1.20;39.00;;;;;;5091634;28;20199;-74
2021/01/05 07:07:41;;;;;;;22.35;17.42;;;1.20;38.80;;;;;;5093693;28;20457;-74
2021/01/05 07:10:08;;;;;;;20.87;17.47;;;1.30;38.60;;;;;;5096984;28;20169;-74
2021/01/05 07:12:34;;;;;;;22.48;17.50;;;1.30;38.40;;;;;;5091896;28;20192;-74
2021/01/05 07:14:59;;;;;;;20.40;18.30;;;1.40;38.20;;;;;;5073699;28;20169;-73
2021/01/05 07:17:25;;;;;;;23.80;20.30;;;1.40;38.10;;;;;;5096433;28;20442;-74
2021/01/05 07:19:50;;;;;;;21.77;18.63;;;1.40;38.00;;;;;;5096489;28;20188;-74
2021/01/05 07:22:16;;;;;;;20.10;18.10;;;1.50;37.90;;;;;;5098674;28;20181;-74
2021/01/05 07:24:42;;;;;;;21.07;18.00;;;1.40;37.80;;;;;;5103838;28;20181;-73
2021/01/05 07:27:07;;;;;;;18.83;17.03;;;1.50;37.70;;;;;;5103438;28;20209;-74
2021/01/05 07:29:33;;;;;;;21.70;16.47;;;1.50;37.50;;;;;;5109754;28;20213;-74
2021/01/05 07:31:59;;;;;;;18.40;16.50;;;1.60;37.50;;;;;;5114545;28;20177;-74
2021/01/05 07:34:24;;;;;;;20.47;17.67;;;1.60;37.10;;;;;;5114831;28;20173;-73
2021/01/05 07:37:01;;;;;;;19.50;17.23;;;1.60;37.20;;;;;;5114339;28;20201;-73
2021/01/05 07:39:30;;;;;;;19.90;17.63;;;1.60;37.30;;;;;;5113912;28;20206;-73
2021/01/05 07:42:14;;;;;;;20.63;17.13;;;1.60;37.20;;;;;;5114264;28;20199;-73
2021/01/05 07:44:40;;;;;;;21.30;17.55;;;1.60;37.50;;;;;;5087363;28;20169;-73
2021/01/05 07:47:06;;;;;;;21.73;17.50;;;1.70;37.40;;;;;;5104669;28;20197;-73
2021/01/05 07:49:32;;;;;;;23.45;17.98;;;1.70;37.00;;;;;;5085530;28;20205;-74
2021/01/05 07:51:58;;;;;;;20.60;17.13;;;1.70;37.20;;;;;;5105702;28;20591;-73
2021/01/05 07:54:23;;;;;;;22.60;17.10;;;1.70;37.50;;;;;;5106689;28;20177;-73
2021/01/05 07:56:49;;;;;;;34.40;21.90;;;1.60;37.70;;;;;;5106152;28;20273;-73
2021/01/05 07:59:16;;;;;;;22.93;19.40;;;1.60;37.90;;;;;;5088449;28;20188;-73
2021/01/05 08:01:41;;;;;;;26.70;20.30;;;1.60;38.30;;;;;;5106260;28;20555;-73
2021/01/05 08:04:07;;;;;;;27.00;20.00;;;1.60;37.90;;;;;;5105268;28;20239;-74
2021/01/05 08:06:32;;;;;;;22.47;18.53;;;1.50;38.40;;;;;;5104423;28;20213;-73
2021/01/05 08:08:58;;;;;;;23.23;19.73;;;1.50;38.60;;;;;;5085405;28;20177;-73
2021/01/05 08:11:23;;;;;;;20.57;18.33;;;1.60;38.40;;;;;;5104758;28;20544;-74
2021/01/05 08:13:49;;;;;;;23.57;18.20;;;1.70;38.30;;;;;;5106208;28;20499;-74
2021/01/05 08:16:15;;;;;;;25.17;18.67;;;1.70;38.00;;;;;;5098484;28;20220;-74
2021/01/05 08:18:40;;;;;;;20.43;17.53;;;1.70;38.30;;;;;;5076393;28;20281;-73
2021/01/05 08:21:07;;;;;;;23.87;20.13;;;1.70;37.90;;;;;;5076223;28;20208;-74
2021/01/05 08:23:33;;;;;;;23.90;18.50;;;1.80;38.00;;;;;;5094696;28;20726;-74
2021/01/05 08:25:58;;;;;;;19.63;17.60;;;1.80;37.80;;;;;;5095155;28;20232;-73
2021/01/05 08:28:24;;;;;;;24.87;21.20;;;1.80;37.90;;;;;;5093110;28;20255;-73
2021/01/05 08:30:49;;;;;;;25.30;22.07;;;1.80;38.30;;;;;;5093854;28;20173;-73
2021/01/05 08:33:16;;;;;;;32.23;21.47;;;1.80;38.70;;;;;;5093938;28;20670;-73
2021/01/05 08:35:46;;;;;;;34.13;23.05;;;1.90;38.90;;;;;;5093819;28;20654;-73
2021/01/05 08:38:12;;;;;;;31.35;22.80;;;1.90;38.90;;;;;;5075956;28;20181;-73
2021/01/05 08:40:38;;;;;;;21.25;18.38;;;1.90;38.40;;;;;;5093630;28;20173;-73
2021/01/05 08:43:09;;;;;;;23.80;18.60;;;2.00;38.00;;;;;;5093887;28;20165;-73
2021/01/05 08:45:34;;;;;;;26.85;20.50;;;2.00;37.70;;;;;;5095611;28;20347;-73
2021/01/05 08:48:00;;;;;;;21.13;18.80;;;2.10;37.80;;;;;;5093673;28;20261;-73
2021/01/05 08:50:28;;;;;;;24.57;21.60;;;2.00;37.80;;;;;;5094946;28;20257;-73
2021/01/05 08:52:59;;;;;;;23.20;19.85;;;2.10;38.30;;;;;;5096578;28;20169;-73
2021/01/05 08:55:25;;;;;;;30.60;23.85;;;2.10;38.30;;;;;;5097617;28;20194;-73
2021/01/05 08:57:51;;;;;;;24.73;21.30;;;2.10;38.20;;;;;;5097065;28;20215;-73
2021/01/05 09:00:17;;;;;;;25.67;21.97;;;2.20;37.80;;;;;;5096900;28;20170;-73
2021/01/05 09:02:42;;;;;;;30.13;20.70;;;2.20;37.80;;;;;;5101829;28;20173;-73
2021/01/05 09:05:09;;;;;;;35.13;22.03;;;2.10;37.70;;;;;;5085245;28;20189;-74
2021/01/05 09:07:35;;;;;;;37.88;24.73;;;2.10;37.60;;;;;;5095277;28;20674;-73
2021/01/05 09:10:00;;;;;;;32.20;22.60;;;2.20;37.70;;;;;;5097465;28;20242;-73
2021/01/05 09:12:34;;;;;;;30.10;24.20;;;2.20;37.90;;;;;;5098956;28;20174;-74
2021/01/05 09:15:00;;;;;;;23.70;19.83;;;2.20;37.90;;;;;;5081167;28;20184;-74
2021/01/05 09:17:25;;;;;;;24.75;20.15;;;2.20;37.70;;;;;;5099725;28;20185;-74
2021/01/05 09:19:51;;;;;;;31.43;20.87;;;2.20;37.10;;;;;;5099435;28;20642;-74
2021/01/05 09:22:24;;;;;;;32.70;22.67;;;2.20;37.60;;;;;;5099249;28;20177;-73
2021/01/05 09:24:50;;;;;;;25.88;21.77;;;2.20;37.80;;;;;;5099622;28;20162;-73
2021/01/05 09:27:16;;;;;;;29.20;23.45;;;2.20;38.20;;;;;;5094123;28;20213;-74
2021/01/05 09:29:42;;;;;;;29.50;22.97;;;2.20;38.30;;;;;;5107909;28;20181;-74
2021/01/05 09:32:07;;;;;;;34.57;24.83;;;2.20;38.50;;;;;;5097633;28;20948;-74
2021/01/05 09:34:33;;;;;;;30.53;22.63;;;2.20;38.60;;;;;;5097233;28;20188;-73
2021/01/05 09:36:59;;;;;;;28.57;23.67;;;2.20;38.60;;;;;;5097005;28;20249;-73
2021/01/05 09:39:24;;;;;;;25.20;21.90;;;2.30;38.80;;;;;;5095843;28;20177;-73
2021/01/05 09:41:57;;;;;;;29.43;23.40;;;2.30;38.70;;;;;;5097907;28;20172;-73
2021/01/05 09:44:23;;;;;;;28.13;24.40;;;2.20;38.80;;;;;;5097279;28;20173;-75
2021/01/05 09:46:51;;;;;;;36.17;24.13;;;2.10;39.10;;;;;;5094483;28;20329;-75
2021/01/05 09:49:17;;;;;;;29.63;24.25;;;2.20;39.20;;;;;;5093095;28;20165;-75
2021/01/05 09:51:42;;;;;;;27.58;23.38;;;2.30;39.40;;;;;;5093153;28;20169;-75
2021/01/05 09:54:08;;;;;;;30.40;24.13;;;2.30;39.00;;;;;;5076555;28;20514;-73
2021/01/05 09:56:34;;;;;;;36.07;27.60;;;2.40;39.00;;;;;;5096610;28;20239;-74
2021/01/05 09:58:59;;;;;;;28.20;24.17;;;2.30;39.40;;;;;;5075503;28;20446;-74
2021/01/05 10:01:28;;;;;;;27.27;24.33;;;2.30;39.80;;;;;;5093599;28;20238;-74
2021/01/05 10:03:53;;;;;;;25.92;23.08;;;2.30;40.10;;;;;;5093511;28;20180;-74
2021/01/05 10:06:21;;;;;;;34.43;25.83;;;2.30;40.10;;;;;;5093269;28;20682;-74
2021/01/05 10:08:47;;;;;;;30.33;25.45;;;2.30;39.60;;;;;;5074788;28;20177;-74
2021/01/05 10:11:13;;;;;;;35.03;26.03;;;2.30;40.20;;;;;;5093286;28;20649;-74
2021/01/05 10:13:38;;;;;;;41.27;30.40;;;2.20;40.40;;;;;;5093242;28;20420;-74
2021/01/05 10:16:04;;;;;;;31.10;27.90;;;2.20;40.70;;;;;;5096363;28;20212;-76
2021/01/05 10:18:30;;;;;;;35.67;26.40;;;2.20;40.90;;;;;;5084436;28;20212;-76
2021/01/05 10:20:55;;;;;;;29.33;26.30;;;2.20;40.90;;;;;;5102243;28;20479;-77
2021/01/05 10:23:24;;;;;;;34.00;27.00;;;2.10;41.30;;;;;;5085280;28;20181;-76
2021/01/05 10:25:49;;;;;;;40.35;27.58;;;2.10;41.70;;;;;;5102542;28;20233;-76
2021/01/05 10:28:15;;;;;;;28.93;23.97;;;2.00;41.90;;;;;;5079171;28;20169;-73
2021/01/05 10:30:40;;;;;;;31.90;26.60;;;2.00;42.30;;;;;;5077157;28;20180;-73
2021/01/05 10:33:07;;;;;;;32.23;27.63;;;2.20;42.40;;;;;;5095333;28;20169;-74
2021/01/05 10:35:32;;;;;;;36.83;25.65;;;2.20;41.80;;;;;;5101454;28;20193;-73
2021/01/05 10:37:58;;;;;;;37.20;26.27;;;2.30;42.00;;;;;;5076588;28;20223;-74
2021/01/05 10:40:25;;;;;;;32.07;23.00;;;2.20;41.40;;;;;;5081261;28;20177;-74
2021/01/05 10:42:51;;;;;;;46.83;27.13;;;2.20;41.40;;;;;;5081131;28;20983;-74
2021/01/05 10:45:22;;;;;;;32.43;26.13;;;2.20;41.80;;;;;;5097286;28;20228;-74
2021/01/05 10:47:49;;;;;;;30.90;24.55;;;2.30;41.70;;;;;;5098072;28;20548;-74
2021/01/05 10:50:18;;;;;;;31.35;27.52;;;2.30;41.80;;;;;;5097267;28;20202;-74
2021/01/05 10:52:48;;;;;;;30.15;26.05;;;2.30;40.90;;;;;;5102330;28;20169;-73
2021/01/05 10:55:15;;;;;;;31.65;26.00;;;2.30;40.90;;;;;;5078684;28;20197;-73
2021/01/05 10:57:41;;;;;;;29.77;25.88;;;2.40;41.00;;;;;;5080968;28;20181;-74
2021/01/05 11:00:08;;;;;;;35.17;25.33;;;2.40;41.50;;;;;;5092614;28;20209;-73
2021/01/05 11:02:33;;;;;;;33.90;24.08;;;2.50;40.80;;;;;;5093725;28;20193;-74
2021/01/05 11:05:00;;;;;;;36.53;24.47;;;2.60;50.50;;;;;;5092917;28;20173;-73
2021/01/05 11:07:25;;;;;;;28.20;24.92;;;2.70;39.30;;;;;;5093116;28;20266;-73
2021/01/05 11:09:51;;;;;;;35.33;24.50;;;2.70;39.30;;;;;;5092099;28;20573;-73
2021/01/05 11:12:21;;;;;;;27.30;22.63;;;2.60;39.50;;;;;;5074600;28;20169;-73
2021/01/05 11:14:47;;;;;;;34.10;24.92;;;2.60;39.60;;;;;;5092757;28;20165;-73
2021/01/05 11:17:12;;;;;;;31.53;25.83;;;2.50;40.20;;;;;;5121517;22;20232;-70
2021/01/05 11:19:40;;;;;;;34.70;26.40;;;2.40;41.00;;;;;;5111299;28;20586;-70
2021/01/05 11:22:09;;;;;;;30.25;24.50;;;2.40;41.00;;;;;;5111874;28;20166;-71
2021/01/05 11:24:37;;;;;;;33.90;25.60;;;2.40;41.00;;;;;;5111569;28;20599;-71
2021/01/05 11:27:04;;;;;;;31.73;25.50;;;2.40;41.00;;;;;;5111760;28;20216;-71
2021/01/05 11:29:29;;;;;;;31.42;22.95;;;2.50;41.00;;;;;;5111176;28;20218;-71
2021/01/05 11:32:01;;;;;;;25.27;22.77;;;2.50;40.80;;;;;;5111632;28;20574;-71
2021/01/05 11:34:27;;;;;;;35.22;25.73;;;2.50;41.10;;;;;;5111413;28;20222;-71
2021/01/05 11:36:53;;;;;;;25.73;22.17;;;2.60;40.40;;;;;;5111800;28;20196;-70
2021/01/05 11:39:19;;;;;;;31.47;24.47;;;2.70;39.80;;;;;;5111144;28;20178;-72
2021/01/05 11:41:45;;;;;;;27.85;22.30;;;2.60;39.60;;;;;;5111405;28;20688;-71
2021/01/05 11:44:13;;;;;;;27.23;22.63;;;2.60;39.80;;;;;;5111634;28;20204;-71
2021/01/05 11:46:39;;;;;;;28.70;22.33;;;2.40;41.10;;;;;;5111110;28;20453;-70
2021/01/05 11:49:04;;;;;;;35.33;25.50;;;2.40;41.00;;;;;;5111014;28;20308;-72
2021/01/05 11:51:34;;;;;;;29.10;22.07;;;2.40;41.20;;;;;;5111322;28;20406;-72
2021/01/05 11:54:00;;;;;;;34.15;22.80;;;2.40;41.00;;;;;;5111443;28;20219;-70
2021/01/05 11:56:29;;;;;;;23.70;20.47;;;2.50;40.70;;;;;;5111406;28;20196;-71
2021/01/05 11:58:55;;;;;;;23.40;20.92;;;2.50;40.70;;;;;;5110896;28;20938;-70
2021/01/05 12:01:21;;;;;;;29.87;22.80;;;2.50;40.20;;;;;;5111412;28;20180;-71
2021/01/05 12:03:46;;;;;;;29.80;23.75;;;2.50;40.20;;;;;;5115046;28;20207;-70
2021/01/05 12:06:18;;;;;;;28.10;23.87;;;2.50;40.70;;;;;;5118249;28;20204;-71
2021/01/05 12:08:44;;;;;;;22.52;20.17;;;2.60;40.60;;;;;;5118695;28;20165;-71
2021/01/05 12:11:19;;;;;;;27.25;20.02;;;2.70;40.10;;;;;;5117462;28;20657;-71
2021/01/05 12:13:44;;;;;;;27.55;23.83;;;2.70;39.90;;;;;;5118983;28;20173;-71
2021/01/05 12:16:10;;;;;;;27.87;22.63;;;2.60;40.00;;;;;;5118426;28;20254;-71
2021/01/05 12:18:37;;;;;;;28.73;25.07;;;2.60;40.20;;;;;;5117291;28;20263;-73
2021/01/05 12:21:03;;;;;;;36.33;27.98;;;2.60;40.10;;;;;;5117640;28;20586;-72
2021/01/05 12:23:28;;;;;;;24.50;20.53;;;2.50;41.00;;;;;;5118308;28;20172;-71
2021/01/05 12:25:54;;;;;;;46.90;34.37;;;2.50;41.10;;;;;;5118146;28;20782;-72
2021/01/05 12:28:19;;;;;;;51.17;35.93;;;2.60;41.30;;;;;;5116955;28;20173;-72
2021/01/05 12:30:45;;;;;;;86.77;57.30;;;2.70;41.40;;;;;;5118143;28;20193;-72
2021/01/05 12:33:11;;;;;;;22.27;19.87;;;2.70;41.20;;;;;;5117887;28;20531;-72
2021/01/05 12:35:41;;;;;;;23.90;21.60;;;2.80;40.30;;;;;;5117767;28;20551;-71
2021/01/05 12:38:07;;;;;;;44.83;34.38;;;2.80;40.00;;;;;;5117914;28;20168;-72
2021/01/05 12:40:33;;;;;;;21.47;18.90;;;2.80;40.60;;;;;;5117475;28;20191;-71
2021/01/05 12:42:58;;;;;;;27.27;23.00;;;2.70;39.90;;;;;;5117528;28;20511;-70
2021/01/05 12:45:24;;;;;;;24.07;20.37;;;2.70;39.40;;;;;;5117549;28;20271;-71
2021/01/05 12:47:50;;;;;;;27.23;20.60;;;2.70;39.50;;;;;;5116829;28;20672;-71
2021/01/05 12:50:18;;;;;;;33.28;22.67;;;2.70;39.40;;;;;;5116787;28;20634;-72
2021/01/05 12:52:47;;;;;;;22.15;19.05;;;2.50;39.80;;;;;;5116072;28;20264;-71